Time;durP1;ratioP1;P1;durP2;ratioP2;P2;SDS_P1;SDS_P2;PMS_P1;PMS_P2;Temp;Humidity;BMP_temperature;BMP_pressure;BME280_temperature;BME280_humidity;BME280_pressure;Samples;Min_cycle;Max_cycle;Signal;HPM_P1;HPM_P2
2022/03/30 00:00:45;;;;;;;;;;;;;;;22.04;36.88;94683.44;2043154;29;1621;-64
2022/03/30 00:01:48;;;;;;;;;;;;;;;22.05;36.82;94674.41;2039350;29;1108;-66
2022/03/30 00:02:51;;;;;;;;;;;;;;;22.06;36.92;94675.22;2042225;29;1614;-66
2022/03/30 00:03:52;;;;;;;;;;;;;;;22.05;36.52;94669.03;2041561;29;1709;-66
2022/03/30 00:04:54;;;;;;;;;;;;;;;22.05;36.80;94673.56;2035861;29;1672;-66
2022/03/30 00:05:56;;;;;;;;;;;;;;;22.05;36.42;94681.56;2038363;29;1520;-65
2022/03/30 00:06:58;;;;;;;;;;;;;;;22.06;36.88;94680.56;2041132;29;1555;-66
2022/03/30 00:07:59;;;;;;;;;;;;;;;22.05;36.68;94674.41;2035843;29;1551;-68
2022/03/30 00:09:01;;;;;;;;;;;;;;;22.06;36.66;94675.22;2043511;29;1529;-69
2022/03/30 00:10:03;;;;;;;;;;;;;;;22.05;36.96;94674.41;2043176;29;1504;-67
2022/03/30 00:11:05;;;;;;;;;;;;;;;22.04;36.78;94678.09;2043657;29;1930;-67
2022/03/30 00:12:06;;;;;;;;;;;;;;;22.05;36.89;94674.41;2043067;29;1469;-69
2022/03/30 00:13:08;;;;;;;;;;;;;;;22.06;36.62;94670.66;2038760;29;1029;-67
2022/03/30 00:14:10;;;;;;;;;;;;;;;22.06;36.95;94665.31;2043082;29;1627;-67
2022/03/30 00:15:12;;;;;;;;;;;;;;;22.06;36.98;94665.31;2043602;29;1187;-69
2022/03/30 00:16:13;;;;;;;;;;;;;;;22.05;37.20;94669.03;2043596;29;1039;-67
2022/03/30 00:17:15;;;;;;;;;;;;;;;22.06;36.91;94670.66;2043835;29;1356;-67
2022/03/30 00:18:17;;;;;;;;;;;;;;;22.05;37.19;94674.41;2042866;29;1812;-67
2022/03/30 00:19:19;;;;;;;;;;;;;;;22.07;36.82;94666.13;2043718;29;1077;-68
2022/03/30 00:20:20;;;;;;;;;;;;;;;22.07;36.94;94664.25;2039932;29;1753;-67
2022/03/30 00:21:22;;;;;;;;;;;;;;;22.07;36.83;94660.78;2043002;29;1656;-67
2022/03/30 00:22:23;;;;;;;;;;;;;;;22.08;37.20;94667.75;2048342;29;1517;-68
2022/03/30 00:23:25;;;;;;;;;;;;;;;22.07;37.06;94666.94;2049944;28;1100;-67
2022/03/30 00:24:28;;;;;;;;;;;;;;;22.07;37.25;94672.28;2041236;28;1554;-67
2022/03/30 00:25:29;;;;;;;;;;;;;;;22.07;36.74;94664.25;2043539;29;1704;-68
2022/03/30 00:26:31;;;;;;;;;;;;;;;22.08;37.08;94663.22;2042811;29;1171;-67
2022/03/30 00:27:32;;;;;;;;;;;;;;;22.07;37.39;94663.44;2041722;29;1478;-67
2022/03/30 00:28:34;;;;;;;;;;;;;;;22.07;37.56;94663.44;2042312;29;1730;-68
2022/03/30 00:29:36;;;;;;;;;;;;;;;22.07;37.25;94666.13;2043683;29;1672;-68
2022/03/30 00:30:37;;;;;;;;;;;;;;;22.07;37.06;94661.56;2043846;29;989;-67
2022/03/30 00:31:39;;;;;;;;;;;;;;;22.07;37.56;94648.19;2043050;29;1976;-67
2022/03/30 00:32:41;;;;;;;;;;;;;;;22.07;37.25;94650.88;2043461;29;1664;-67
2022/03/30 00:33:42;;;;;;;;;;;;;;;22.07;37.27;94653.56;2043245;29;1552;-67
2022/03/30 00:34:44;;;;;;;;;;;;;;;22.08;37.02;94668.59;2038001;29;1112;-67
2022/03/30 00:35:46;;;;;;;;;;;;;;;22.08;37.52;94665.06;2041597;29;1649;-67
2022/03/30 00:36:48;;;;;;;;;;;;;;;22.07;37.06;94661.56;2042657;29;1181;-65
2022/03/30 00:37:50;;;;;;;;;;;;;;;22.08;36.95;94657.88;2038295;29;1762;-67
2022/03/30 00:38:51;;;;;;;;;;;;;;;22.09;37.63;94658.69;2035572;29;1108;-67
2022/03/30 00:39:53;;;;;;;;;;;;;;;22.09;37.40;94650.66;2035618;29;1471;-67
2022/03/30 00:40:55;;;;;;;;;;;;;;;22.09;37.56;94659.50;2042868;29;1036;-67
2022/03/30 00:41:57;;;;;;;;;;;;;;;22.09;37.18;94654.16;2042607;29;1451;-69
2022/03/30 00:42:58;;;;;;;;;;;;;;;22.10;37.12;94663.78;2042113;29;1726;-69
2022/03/30 00:44:07;;;;;;;;;;;;;;;22.11;37.62;94651.25;2042428;29;1494;-69
2022/03/30 00:45:11;;;;;;;;;;;;;;;22.11;37.38;94656.59;2042972;29;1121;-69
2022/03/30 00:46:12;;;;;;;;;;;;;;;22.11;37.23;94657.41;2038151;29;2061;-70
2022/03/30 00:47:15;;;;;;;;;;;;;;;22.12;37.19;94659.03;2043853;29;1052;-69
2022/03/30 00:48:17;;;;;;;;;;;;;;;22.10;37.40;94658.44;2042896;29;1473;-65
2022/03/30 00:49:19;;;;;;;;;;;;;;;22.10;37.70;94653.09;2042643;29;1162;-65
2022/03/30 00:50:21;;;;;;;;;;;;;;;22.12;37.61;94652.88;2037753;29;1522;-65
2022/03/30 00:51:23;;;;;;;;;;;;;;;22.11;37.22;94645.91;2035784;29;1914;-66
2022/03/30 00:52:24;;;;;;;;;;;;;;;22.10;37.60;94650.41;2035754;29;1097;-65
2022/03/30 00:53:26;;;;;;;;;;;;;;;22.11;37.16;94656.59;2035782;29;1028;-66
2022/03/30 00:54:27;;;;;;;;;;;;;;;22.12;37.29;94658.22;2042200;29;1525;-68
2022/03/30 00:55:29;;;;;;;;;;;;;;;22.13;37.80;94657.97;2043412;29;1548;-69
2022/03/30 00:56:32;;;;;;;;;;;;;;;22.13;37.51;94654.50;2041592;29;1701;-69
2022/03/30 00:57:35;;;;;;;;;;;;;;;22.13;37.54;94647.28;2041807;29;1537;-69
2022/03/30 00:58:36;;;;;;;;;;;;;;;22.13;37.60;94649.94;2043019;29;1131;-68
2022/03/30 00:59:39;;;;;;;;;;;;;;;22.13;37.40;94655.31;2042228;29;1553;-69
2022/03/30 01:00:41;;;;;;;;;;;;;;;22.13;37.72;94655.31;2043520;29;1108;-69
2022/03/30 01:01:43;;;;;;;;;;;;;;;22.15;37.37;94656.94;2042160;29;1446;-68
2022/03/30 01:02:46;;;;;;;;;;;;;;;22.15;37.72;94654.28;2042162;29;1473;-67
2022/03/30 01:03:48;;;;;;;;;;;;;;;22.13;37.60;94657.97;2039434;29;1630;-67
2022/03/30 01:04:50;;;;;;;;;;;;;;;22.13;37.72;94657.16;2033831;29;1176;-67
2022/03/30 01:05:51;;;;;;;;;;;;;;;22.15;37.63;94656.94;2033754;29;1469;-66
2022/03/30 01:06:53;;;;;;;;;;;;;;;22.13;37.44;94652.63;2040924;29;1717;-66
2022/03/30 01:07:58;;;;;;;;;;;;;;;22.13;37.40;94647.28;2044867;28;1073;-66
2022/03/30 01:08:59;;;;;;;;;;;;;;;22.13;37.12;94652.63;2035842;29;1552;-67
2022/03/30 01:10:03;;;;;;;;;;;;;;;22.15;37.61;94651.59;2037746;29;1741;-67
2022/03/30 01:11:04;;;;;;;;;;;;;;;22.15;37.58;94640.91;2042111;29;2161;-66
2022/03/30 01:12:10;;;;;;;;;;;;;;;22.15;37.73;94655.09;2041108;29;1394;-66
2022/03/30 01:13:12;;;;;;;;;;;;;;;22.16;37.65;94648.69;2042337;29;1784;-66
2022/03/30 01:14:14;;;;;;;;;;;;;;;22.17;37.71;94646.81;2042088;29;1549;-68
2022/03/30 01:15:16;;;;;;;;;;;;;;;22.17;37.44;94638.78;2042045;29;1070;-67
2022/03/30 01:16:18;;;;;;;;;;;;;;;22.18;37.68;94640.44;2042216;29;1101;-67
2022/03/30 01:17:19;;;;;;;;;;;;;;;22.18;37.28;94635.09;2041308;29;1619;-67
2022/03/30 01:18:21;;;;;;;;;;;;;;;22.19;37.52;94628.69;2040690;29;1164;-68
2022/03/30 01:19:27;;;;;;;;;;;;;;;22.18;37.50;94641.25;2039000;29;1289;-67
2022/03/30 01:20:29;;;;;;;;;;;;;;;22.17;37.31;94639.63;2038866;29;1766;-67
2022/03/30 01:21:37;;;;;;;;;;;;;;;22.17;37.59;94633.44;2041504;29;1092;-68
2022/03/30 01:22:39;;;;;;;;;;;;;;;22.18;37.45;94635.09;2041846;29;1073;-69
2022/03/30 01:23:41;;;;;;;;;;;;;;;22.17;37.46;94631.59;2040754;29;1486;-68
2022/03/30 01:24:42;;;;;;;;;;;;;;;22.18;37.30;94640.44;2040824;29;1480;-68
2022/03/30 01:25:44;;;;;;;;;;;;;;;22.16;37.39;94637.97;2041688;29;977;-68
2022/03/30 01:26:46;;;;;;;;;;;;;;;22.18;37.47;94640.44;2040160;29;1619;-68
2022/03/30 01:27:47;;;;;;;;;;;;;;;22.17;37.41;94639.63;2041880;29;1109;-67
2022/03/30 01:28:49;;;;;;;;;;;;;;;22.18;37.50;94640.44;2041504;29;1024;-68
2022/03/30 01:32:47;;;;;;;;;;;;;;;22.17;37.67;94633.44;2042039;29;1120;-65
2022/03/30 01:33:49;;;;;;;;;;;;;;;22.16;37.36;94634.50;2041915;29;965;-65
2022/03/30 01:34:51;;;;;;;;;;;;;;;22.17;37.84;94636.09;2041315;29;1525;-65
2022/03/30 01:35:53;;;;;;;;;;;;;;;22.16;37.81;94631.81;2040837;29;1687;-68
2022/03/30 01:36:55;;;;;;;;;;;;;;;22.15;37.69;94636.34;2041347;29;1050;-65
2022/03/30 01:37:56;;;;;;;;;;;;;;;22.16;38.03;94623.78;2041037;29;1570;-64
2022/03/30 01:38:58;;;;;;;;;;;;;;;22.16;37.72;94626.47;2041425;29;1001;-66
2022/03/30 01:40:01;;;;;;;;;;;;;;;22.15;38.09;94632.88;2039130;29;1475;-65
2022/03/30 01:41:02;;;;;;;;;;;;;;;22.15;38.13;94632.88;2029016;29;1221;-64
2022/03/30 01:42:04;;;;;;;;;;;;;;;22.14;38.14;94637.41;2033922;29;1116;-67
2022/03/30 01:43:05;;;;;;;;;;;;;;;22.15;38.01;94632.88;2040955;29;1406;-67
2022/03/30 01:44:08;;;;;;;;;;;;;;;22.15;38.19;94631.00;2041353;29;1517;-68
2022/03/30 01:45:11;;;;;;;;;;;;;;;22.13;38.05;94625.88;2042248;29;1044;-68
2022/03/30 01:46:13;;;;;;;;;;;;;;;22.16;37.92;94634.50;2042072;29;1108;-68
2022/03/30 01:47:15;;;;;;;;;;;;;;;22.14;37.99;94640.09;2041197;29;1450;-68
2022/03/30 01:48:16;;;;;;;;;;;;;;;22.15;38.28;94646.25;2041355;29;1184;-68
2022/03/30 01:49:21;;;;;;;;;;;;;;;22.15;38.29;94646.25;2041059;29;1057;-68
2022/03/30 01:50:23;;;;;;;;;;;;;;;22.15;38.32;94649.75;2042247;29;1887;-68
2022/03/30 01:51:24;;;;;;;;;;;;;;;22.15;37.88;94652.41;2040680;29;1014;-68
2022/03/30 01:52:26;;;;;;;;;;;;;;;22.15;38.07;94649.75;2039627;29;1136;-69
2022/03/30 01:53:28;;;;;;;;;;;;;;;22.15;38.11;94648.94;2041858;29;1515;-69
2022/03/30 01:54:33;;;;;;;;;;;;;;;22.12;38.20;94645.66;2042311;29;1071;-68
2022/03/30 01:55:35;;;;;;;;;;;;;;;22.12;38.22;94640.31;2041983;29;1106;-68
2022/03/30 01:56:36;;;;;;;;;;;;;;;22.13;37.83;94644.59;2040888;29;1447;-68
2022/03/30 01:57:38;;;;;;;;;;;;;;;22.15;38.06;94656.94;2041885;29;963;-68
2022/03/30 01:58:43;;;;;;;;;;;;;;;22.15;37.88;94646.25;2041468;29;1499;-68
2022/03/30 01:59:45;;;;;;;;;;;;;;;22.15;38.13;94646.25;2042171;29;1073;-67
2022/03/30 02:00:47;;;;;;;;;;;;;;;22.15;38.16;94643.56;2040227;29;1495;-68
2022/03/30 02:01:49;;;;;;;;;;;;;;;22.14;37.98;94645.44;2034270;29;1033;-68
2022/03/30 02:02:50;;;;;;;;;;;;;;;22.15;37.91;94647.06;2035278;29;1461;-68
2022/03/30 02:03:52;;;;;;;;;;;;;;;22.13;37.88;94647.28;2034974;29;1364;-69
2022/03/30 02:04:54;;;;;;;;;;;;;;;22.14;37.99;94642.75;2034244;29;1069;-68
2022/03/30 02:05:55;;;;;;;;;;;;;;;22.15;38.11;94646.25;2034105;29;1108;-69
2022/03/30 02:06:57;;;;;;;;;;;;;;;22.16;38.02;94645.19;2034168;29;1087;-68
2022/03/30 02:07:59;;;;;;;;;;;;;;;22.16;38.11;94653.22;2033816;29;1037;-67
2022/03/30 02:09:01;;;;;;;;;;;;;;;22.15;37.98;94640.91;2033303;29;1143;-68
2022/03/30 02:10:03;;;;;;;;;;;;;;;22.15;37.94;94648.94;2039336;29;1547;-68
2022/03/30 02:11:05;;;;;;;;;;;;;;;22.15;37.98;94649.75;2032912;29;1133;-68
2022/03/30 02:12:07;;;;;;;;;;;;;;;22.15;38.10;94646.25;2033176;29;1993;-66
2022/03/30 02:13:09;;;;;;;;;;;;;;;22.16;38.05;94648.69;2033194;29;1021;-64
2022/03/30 02:14:11;;;;;;;;;;;;;;;22.15;38.04;94649.75;2029198;29;1163;-65
2022/03/30 02:15:13;;;;;;;;;;;;;;;22.13;38.18;94652.63;2033887;29;989;-65
2022/03/30 02:16:16;;;;;;;;;;;;;;;22.16;37.88;94663.94;2033688;29;1068;-65
2022/03/30 02:17:18;;;;;;;;;;;;;;;22.15;38.04;94664.97;2035663;29;1445;-66
2022/03/30 02:18:20;;;;;;;;;;;;;;;22.15;37.93;94654.28;2041192;29;1043;-65
2022/03/30 02:19:22;;;;;;;;;;;;;;;22.16;38.04;94655.91;2041113;29;1042;-65
2022/03/30 02:20:23;;;;;;;;;;;;;;;22.16;37.81;94656.72;2040841;29;1370;-66
2022/03/30 02:21:25;;;;;;;;;;;;;;;22.17;37.83;94665.53;2040093;29;1526;-65
2022/03/30 02:22:26;;;;;;;;;;;;;;;22.15;37.99;94651.59;2041028;29;1187;-65
2022/03/30 02:23:28;;;;;;;;;;;;;;;22.15;37.94;94656.94;2040797;29;1691;-65
2022/03/30 02:24:31;;;;;;;;;;;;;;;22.16;37.90;94666.59;2038105;29;1492;-67
2022/03/30 02:25:34;;;;;;;;;;;;;;;22.16;37.82;94663.94;2039704;29;1641;-66
2022/03/30 02:26:36;;;;;;;;;;;;;;;22.16;37.82;94664.72;2041569;29;996;-65
2022/03/30 02:27:37;;;;;;;;;;;;;;;22.15;38.06;94662.31;2041500;29;1034;-66
2022/03/30 02:28:40;;;;;;;;;;;;;;;22.15;37.85;94656.94;2041681;29;1105;-65
2022/03/30 02:29:49;;;;;;;;;;;;;;;22.15;37.79;94663.13;2036788;29;1583;-65
2022/03/30 02:30:51;;;;;;;;;;;;;;;22.15;37.98;94663.13;2038892;29;1552;-66
2022/03/30 02:31:53;;;;;;;;;;;;;;;22.15;37.95;94673.81;2033916;29;1968;-64
2022/03/30 02:32:55;;;;;;;;;;;;;;;22.16;37.87;94663.94;2033342;29;1064;-65
2022/03/30 02:33:56;;;;;;;;;;;;;;;22.15;37.94;94673.00;2033854;29;1011;-65
2022/03/30 02:34:58;;;;;;;;;;;;;;;22.15;37.91;94668.47;2033671;29;1648;-65
2022/03/30 02:35:59;;;;;;;;;;;;;;;22.15;37.84;94671.16;2030057;29;1513;-65
2022/03/30 02:37:01;;;;;;;;;;;;;;;22.15;38.09;94673.81;2041078;29;1024;-65
2022/03/30 02:38:02;;;;;;;;;;;;;;;22.16;37.79;94679.97;2040561;29;999;-65
2022/03/30 02:39:04;;;;;;;;;;;;;;;22.15;37.71;94679.16;2040890;29;985;-65
2022/03/30 02:40:06;;;;;;;;;;;;;;;22.15;37.69;94673.00;2040285;29;1645;-67
2022/03/30 02:41:08;;;;;;;;;;;;;;;22.16;37.91;94679.97;2040734;29;1085;-68
2022/03/30 02:42:09;;;;;;;;;;;;;;;22.16;37.88;94670.09;2041122;29;1157;-69
2022/03/30 02:43:11;;;;;;;;;;;;;;;22.15;37.89;94668.47;2048596;29;1096;-68
2022/03/30 02:44:13;;;;;;;;;;;;;;;22.16;37.96;94674.63;2041546;29;1179;-65
2022/03/30 02:45:15;;;;;;;;;;;;;;;22.16;37.96;94669.28;2041518;29;932;-66
2022/03/30 02:46:17;;;;;;;;;;;;;;;22.16;38.11;94671.97;2041511;29;1123;-66
2022/03/30 02:48:17;;;;;;;;;;;;;;;22.15;37.84;94667.66;2036611;29;1157;-66
2022/03/30 02:48:40;;;;;;;;;;;;;;;22.15;38.24;94671.16;2035114;29;1450;-64
2022/03/30 02:49:41;;;;;;;;;;;;;;;22.18;37.90;94669.88;2039189;29;1448;-69
2022/03/30 02:50:47;;;;;;;;;;;;;;;22.18;38.25;94672.53;2040883;29;1623;-69
2022/03/30 02:51:49;;;;;;;;;;;;;;;22.18;37.92;94668.00;2041178;29;1068;-69
2022/03/30 02:52:50;;;;;;;;;;;;;;;22.18;38.00;94667.19;2040907;29;1989;-69
2022/03/30 02:53:52;;;;;;;;;;;;;;;22.19;38.24;94668.81;2041749;29;1036;-70
2022/03/30 02:54:53;;;;;;;;;;;;;;;22.18;38.09;94659.97;2040851;29;1498;-69
2022/03/30 02:55:56;;;;;;;;;;;;;;;22.17;38.18;94661.03;2041450;29;1185;-70
2022/03/30 02:56:57;;;;;;;;;;;;;;;22.18;38.04;94664.53;2041799;29;1050;-69
2022/03/30 02:57:59;;;;;;;;;;;;;;;22.17;38.32;94666.38;2036972;29;1052;-69
2022/03/30 02:59:00;;;;;;;;;;;;;;;22.18;38.04;94661.84;2040566;29;1504;-69
2022/03/30 03:00:04;;;;;;;;;;;;;;;22.18;38.33;94677.91;2041511;29;1104;-69
2022/03/30 03:01:06;;;;;;;;;;;;;;;22.18;38.38;94661.84;2037838;29;1633;-69
2022/03/30 03:02:07;;;;;;;;;;;;;;;22.18;38.26;94662.66;2033299;29;1076;-72
2022/03/30 03:03:09;;;;;;;;;;;;;;;20.76;29.96;94668.34;2033056;29;1478;-68
2022/03/30 03:04:12;;;;;;;;;;;;;;;18.39;30.21;94673.66;2033531;29;1176;-63
2022/03/30 03:05:13;;;;;;;;;;;;;;;16.75;31.61;94668.50;2040960;29;1761;-64
2022/03/30 03:06:15;;;;;;;;;;;;;;;16.24;32.90;94672.25;2041570;29;1017;-63
2022/03/30 03:07:17;;;;;;;;;;;;;;;15.86;33.02;94669.09;2041396;29;1065;-64
2022/03/30 03:08:18;;;;;;;;;;;;;;;15.86;33.76;94664.59;2041513;29;999;-63
2022/03/30 03:09:20;;;;;;;;;;;;;;;15.65;33.29;94659.31;2033127;29;1459;-63
2022/03/30 03:10:21;;;;;;;;;;;;;;;15.38;33.07;94663.50;2033228;29;1078;-65
2022/03/30 03:11:24;;;;;;;;;;;;;;;15.24;33.42;94664.38;2033130;29;1188;-63
2022/03/30 03:12:25;;;;;;;;;;;;;;;15.21;33.14;94667.38;2033365;29;1998;-63
2022/03/30 03:13:27;;;;;;;;;;;;;;;14.99;33.41;94662.03;2033565;29;1509;-64
2022/03/30 03:14:29;;;;;;;;;;;;;;;15.13;33.35;94660.38;2039763;29;1713;-63
2022/03/30 03:15:31;;;;;;;;;;;;;;;14.92;33.50;94661.16;2034105;29;1723;-64
2022/03/30 03:16:33;;;;;;;;;;;;;;;15.16;33.27;94662.63;2037707;29;1689;-65
2022/03/30 03:17:35;;;;;;;;;;;;;;;15.23;33.18;94658.25;2039500;29;1710;-64
2022/03/30 03:18:36;;;;;;;;;;;;;;;15.40;33.22;94658.84;2037688;29;1560;-63
2022/03/30 03:19:38;;;;;;;;;;;;;;;15.27;33.34;94664.00;2037072;29;1658;-65
2022/03/30 03:20:44;;;;;;;;;;;;;;;15.17;33.08;94659.00;2044525;29;1389;-63
2022/03/30 03:21:45;;;;;;;;;;;;;;;15.37;33.20;94661.88;2049124;28;1116;-63
2022/03/30 03:22:47;;;;;;;;;;;;;;;15.51;32.98;94663.66;2038998;29;1601;-65
2022/03/30 03:23:48;;;;;;;;;;;;;;;15.53;33.02;94666.09;2039806;29;1592;-63
2022/03/30 03:24:50;;;;;;;;;;;;;;;15.48;32.99;94661.38;2034977;29;1474;-64
2022/03/30 03:25:53;;;;;;;;;;;;;;;15.32;32.98;94657.13;2040482;29;1115;-65
2022/03/30 03:26:55;;;;;;;;;;;;;;;15.39;32.97;94663.31;2040691;29;1075;-63
2022/03/30 03:27:56;;;;;;;;;;;;;;;15.23;32.70;94649.50;2041027;29;1032;-63
2022/03/30 03:28:58;;;;;;;;;;;;;;;15.09;33.29;94652.00;2040546;29;1492;-63
2022/03/30 03:29:59;;;;;;;;;;;;;;;14.99;32.93;94656.75;2041345;29;1027;-62
2022/03/30 03:31:01;;;;;;;;;;;;;;;14.92;33.15;94651.38;2036090;29;1206;-63
2022/03/30 03:32:03;;;;;;;;;;;;;;;14.98;33.16;94654.28;2040208;29;1120;-64
2022/03/30 03:33:05;;;;;;;;;;;;;;;14.99;33.13;94651.44;2041095;29;1910;-63
2022/03/30 03:34:08;;;;;;;;;;;;;;;15.09;33.33;94656.47;2041055;29;1175;-65
2022/03/30 03:35:10;;;;;;;;;;;;;;;15.19;32.98;94651.69;2040543;29;2025;-63
2022/03/30 03:36:11;;;;;;;;;;;;;;;14.99;33.17;94653.28;2040824;29;1021;-64
2022/03/30 03:37:13;;;;;;;;;;;;;;;14.77;33.40;94657.69;2041064;29;1112;-63
2022/03/30 03:38:21;;;;;;;;;;;;;;;14.80;33.30;94658.16;2040576;29;1380;-63
2022/03/30 03:39:22;;;;;;;;;;;;;;;14.80;33.42;94657.34;2034550;29;1649;-64
2022/03/30 03:40:24;;;;;;;;;;;;;;;14.88;33.46;94662.50;2036327;29;1345;-63
2022/03/30 03:41:26;;;;;;;;;;;;;;;15.02;33.21;94660.84;2039832;29;1497;-63
2022/03/30 03:42:28;;;;;;;;;;;;;;;14.82;33.25;94661.41;2028901;29;1675;-63
2022/03/30 03:43:30;;;;;;;;;;;;;;;15.46;33.20;94662.56;2033315;29;1160;-65
2022/03/30 03:44:31;;;;;;;;;;;;;;;15.45;32.08;94660.91;2032819;29;1100;-66
2022/03/30 03:45:33;;;;;;;;;;;;;;;15.41;32.81;94666.59;2035324;29;1514;-62
2022/03/30 03:46:35;;;;;;;;;;;;;;;14.96;32.93;94662.41;2039761;29;1528;-61
2022/03/30 03:47:37;;;;;;;;;;;;;;;14.94;33.20;94665.25;2040331;29;1502;-68
2022/03/30 03:48:38;;;;;;;;;;;;;;;15.14;33.32;94662.03;2041013;29;1109;-63
2022/03/30 03:49:40;;;;;;;;;;;;;;;15.46;33.50;94658.09;2040659;29;1128;-65
2022/03/30 03:50:43;;;;;;;;;;;;;;;15.72;34.02;94657.53;2041005;29;1111;-65
2022/03/30 03:51:44;;;;;;;;;;;;;;;15.91;33.85;94655.28;2040219;29;1690;-64
2022/03/30 03:52:46;;;;;;;;;;;;;;;16.27;33.71;94658.59;2036500;29;1911;-61
2022/03/30 03:53:54;;;;;;;;;;;;;;;17.09;33.84;94653.59;2040009;29;1700;-63
2022/03/30 03:54:56;;;;;;;;;;;;;;;17.63;33.06;94648.22;2039081;29;1656;-62
2022/03/30 03:55:57;;;;;;;;;;;;;;;18.07;32.46;94656.69;2039643;29;1176;-61
2022/03/30 03:56:59;;;;;;;;;;;;;;;18.41;32.08;94655.66;2040354;29;1087;-63
2022/03/30 03:58:01;;;;;;;;;;;;;;;18.67;31.61;94646.81;2039220;29;1214;-62
2022/03/30 03:59:04;;;;;;;;;;;;;;;18.86;31.43;94655.75;2039429;29;1487;-63
2022/03/30 04:00:06;;;;;;;;;;;;;;;19.03;31.04;94653.47;2039708;29;1557;-62
2022/03/30 04:01:08;;;;;;;;;;;;;;;19.16;31.02;94649.94;2037953;29;1640;-62
2022/03/30 04:02:10;;;;;;;;;;;;;;;19.36;30.92;94655.19;2033704;29;1489;-65
2022/03/30 04:03:12;;;;;;;;;;;;;;;19.55;30.48;94653.44;2039192;29;1277;-61
2022/03/30 04:04:14;;;;;;;;;;;;;;;19.71;30.84;94652.94;2040020;29;1570;-61
2022/03/30 04:05:16;;;;;;;;;;;;;;;19.82;30.63;94654.94;2032210;29;1117;-68
2022/03/30 04:06:17;;;;;;;;;;;;;;;19.91;30.76;94649.34;2033155;29;1164;-64
2022/03/30 04:07:19;;;;;;;;;;;;;;;19.96;30.83;94650.31;2032784;29;1545;-66
2022/03/30 04:08:20;;;;;;;;;;;;;;;19.49;28.89;94652.44;2033236;29;1086;-62
2022/03/30 04:09:22;;;;;;;;;;;;;;;16.62;31.39;94648.03;2035776;29;1494;-64
2022/03/30 04:10:23;;;;;;;;;;;;;;;15.40;33.24;94649.06;2039626;29;1436;-62
2022/03/30 04:11:25;;;;;;;;;;;;;;;14.48;34.52;94654.00;2040837;29;1001;-62
2022/03/30 04:12:26;;;;;;;;;;;;;;;14.32;35.62;94649.75;2040245;29;1501;-61
2022/03/30 04:13:28;;;;;;;;;;;;;;;14.26;35.58;94645.19;2039248;29;1910;-63
2022/03/30 04:14:30;;;;;;;;;;;;;;;15.39;34.47;94649.25;2036929;29;1647;-62
2022/03/30 04:15:32;;;;;;;;;;;;;;;16.30;33.40;94655.59;2029264;29;1684;-62
2022/03/30 04:16:34;;;;;;;;;;;;;;;17.06;32.05;94651.31;2040677;29;1062;-62
2022/03/30 04:17:41;;;;;;;;;;;;;;;17.66;31.82;94650.47;2038648;29;1705;-62
2022/03/30 04:18:43;;;;;;;;;;;;;;;18.18;31.27;94647.25;2038253;29;1395;-62
2022/03/30 04:19:44;;;;;;;;;;;;;;;18.53;30.72;94651.31;2041003;29;1082;-64
2022/03/30 04:20:46;;;;;;;;;;;;;;;18.81;30.42;94652.94;2038762;29;1483;-63
2022/03/30 04:21:48;;;;;;;;;;;;;;;19.03;30.08;94652.66;2033288;29;1014;-62
2022/03/30 04:22:50;;;;;;;;;;;;;;;19.17;30.13;94655.03;2036838;29;1476;-62
2022/03/30 04:23:51;;;;;;;;;;;;;;;19.29;30.09;94652.56;2040030;29;1096;-64
2022/03/30 04:24:53;;;;;;;;;;;;;;;19.38;29.82;94651.28;2040273;29;1144;-62
2022/03/30 04:25:55;;;;;;;;;;;;;;;19.45;29.77;94654.69;2036316;29;1100;-62
2022/03/30 04:26:56;;;;;;;;;;;;;;;19.54;29.77;94657.16;2040178;29;1072;-62
2022/03/30 04:27:58;;;;;;;;;;;;;;;19.57;29.82;94641.56;2040515;29;1159;-63
2022/03/30 04:28:59;;;;;;;;;;;;;;;19.64;29.78;94646.84;2041079;29;1373;-63
2022/03/30 04:30:01;;;;;;;;;;;;;;;19.68;29.82;94648.06;2040945;29;1050;-62
2022/03/30 04:31:03;;;;;;;;;;;;;;;19.72;29.82;94659.94;2041087;29;1118;-62
2022/03/30 04:32:05;;;;;;;;;;;;;;;19.76;29.77;94657.66;2040747;29;1154;-62
2022/03/30 04:33:06;;;;;;;;;;;;;;;19.81;29.84;94657.81;2040987;29;1988;-62
2022/03/30 04:34:08;;;;;;;;;;;;;;;19.84;29.96;94658.19;2041405;29;1295;-63
2022/03/30 04:35:11;;;;;;;;;;;;;;;19.85;29.99;94657.16;2040915;29;1949;-62
2022/03/30 04:36:13;;;;;;;;;;;;;;;19.89;29.99;94653.03;2041178;29;991;-63
2022/03/30 04:37:15;;;;;;;;;;;;;;;19.92;29.97;94649.13;2036315;29;1043;-63
2022/03/30 04:38:17;;;;;;;;;;;;;;;19.96;29.96;94649.50;2040955;29;1115;-63
2022/03/30 04:39:18;;;;;;;;;;;;;;;19.98;30.10;94650.94;2039944;29;1155;-62
2022/03/30 04:40:22;;;;;;;;;;;;;;;20.00;30.12;94651.50;2040555;29;970;-63
2022/03/30 04:41:23;;;;;;;;;;;;;;;20.04;30.11;94658.06;2041741;29;1103;-63
2022/03/30 04:42:25;;;;;;;;;;;;;;;20.06;30.04;94657.81;2041902;29;1117;-63
2022/03/30 04:43:27;;;;;;;;;;;;;;;20.07;30.13;94656.81;2041667;29;1023;-62
2022/03/30 04:44:29;;;;;;;;;;;;;;;20.09;30.16;94652.91;2041831;29;1078;-62
2022/03/30 04:45:30;;;;;;;;;;;;;;;20.12;30.05;94649.00;2041652;29;1120;-61
2022/03/30 04:46:32;;;;;;;;;;;;;;;20.13;30.03;94650.59;2041375;29;1167;-64
2022/03/30 04:47:34;;;;;;;;;;;;;;;20.14;30.24;94657.56;2041803;29;1090;-63
2022/03/30 04:48:35;;;;;;;;;;;;;;;20.17;30.13;94650.97;2036994;29;1165;-62
2022/03/30 04:49:37;;;;;;;;;;;;;;;20.18;30.26;94647.31;2041785;29;1112;-63
2022/03/30 04:50:39;;;;;;;;;;;;;;;20.20;30.22;94650.53;2041708;29;1097;-62
2022/03/30 04:51:40;;;;;;;;;;;;;;;20.21;30.06;94653.00;2041879;29;1027;-62
2022/03/30 04:52:42;;;;;;;;;;;;;;;20.23;30.10;94645.63;2041766;29;1014;-63
2022/03/30 04:53:43;;;;;;;;;;;;;;;20.24;30.28;94647.22;2041468;29;2268;-64
2022/03/30 04:54:45;;;;;;;;;;;;;;;20.27;30.14;94645.97;2042183;29;988;-63
2022/03/30 04:55:46;;;;;;;;;;;;;;;20.28;30.40;94647.59;2034558;29;1112;-62
2022/03/30 04:56:51;;;;;;;;;;;;;;;20.30;30.07;94650.88;2034469;29;1117;-62
2022/03/30 04:57:53;;;;;;;;;;;;;;;20.31;30.33;94639.97;2034873;29;973;-62
2022/03/30 04:58:55;;;;;;;;;;;;;;;20.31;30.24;94642.63;2030109;29;1041;-63
2022/03/30 04:59:56;;;;;;;;;;;;;;;20.34;30.15;94650.25;2034318;29;1314;-62
2022/03/30 05:00:58;;;;;;;;;;;;;;;20.35;30.30;94643.03;2034007;29;1078;-61
2022/03/30 05:02:00;;;;;;;;;;;;;;;20.36;30.20;94649.19;2034596;29;1064;-63
2022/03/30 05:03:01;;;;;;;;;;;;;;;20.38;30.34;94647.16;2026081;29;1016;-63
2022/03/30 05:04:04;;;;;;;;;;;;;;;20.39;30.19;94646.13;2026386;29;1071;-62
2022/03/30 05:05:08;;;;;;;;;;;;;;;20.40;30.17;94650.41;2034441;29;1134;-63
2022/03/30 05:06:09;;;;;;;;;;;;;;;20.42;30.52;94659.00;2034351;29;1156;-61
2022/03/30 05:07:13;;;;;;;;;;;;;;;20.42;30.23;94657.16;2034484;29;1101;-61
2022/03/30 05:08:14;;;;;;;;;;;;;;;20.44;30.20;94662.28;2033864;29;1052;-61
2022/03/30 05:09:16;;;;;;;;;;;;;;;20.44;30.30;94663.09;2034551;29;1160;-63
2022/03/30 05:10:17;;;;;;;;;;;;;;;20.46;30.22;94662.88;2029146;29;1105;-64
2022/03/30 05:11:19;;;;;;;;;;;;;;;20.47;30.28;94667.19;2034168;29;1096;-62
2022/03/30 05:12:21;;;;;;;;;;;;;;;20.47;30.34;94667.19;2026173;29;1098;-63
2022/03/30 05:13:23;;;;;;;;;;;;;;;20.49;30.26;94659.78;2025952;29;1108;-62
2022/03/30 05:14:24;;;;;;;;;;;;;;;20.49;30.23;94663.25;2033571;29;1023;-62
2022/03/30 05:15:28;;;;;;;;;;;;;;;20.51;30.27;94668.38;2034208;29;1023;-61
2022/03/30 05:16:29;;;;;;;;;;;;;;;20.52;30.23;94659.34;2033734;29;1175;-62
2022/03/30 05:17:31;;;;;;;;;;;;;;;20.52;30.26;94660.16;2034205;29;1081;-62
2022/03/30 05:18:33;;;;;;;;;;;;;;;20.53;30.43;94667.13;2034507;29;1047;-62
2022/03/30 05:19:35;;;;;;;;;;;;;;;20.53;30.44;94671.63;2034336;29;1047;-62
2022/03/30 05:20:36;;;;;;;;;;;;;;;20.56;30.44;94676.53;2034119;29;1317;-61
2022/03/30 05:21:38;;;;;;;;;;;;;;;20.56;30.43;94676.53;2029608;29;1003;-61
2022/03/30 05:22:40;;;;;;;;;;;;;;;20.56;30.39;94666.69;2034524;29;1016;-63
2022/03/30 05:23:41;;;;;;;;;;;;;;;20.58;30.50;94668.31;2034033;29;1008;-62
2022/03/30 05:24:43;;;;;;;;;;;;;;;20.59;30.50;94669.94;2034042;29;1097;-62
2022/03/30 05:25:45;;;;;;;;;;;;;;;20.59;30.55;94664.59;2034440;29;1167;-62
2022/03/30 05:26:47;;;;;;;;;;;;;;;20.60;30.43;94672.41;2034454;29;1098;-61
2022/03/30 05:27:48;;;;;;;;;;;;;;;20.62;30.36;94667.66;2034329;29;1171;-62
2022/03/30 05:28:50;;;;;;;;;;;;;;;20.63;30.55;94671.97;2033821;29;1071;-62
2022/03/30 05:29:51;;;;;;;;;;;;;;;20.63;30.26;94669.31;2033724;29;1156;-61
2022/03/30 05:30:53;;;;;;;;;;;;;;;20.64;30.32;94673.59;2033910;29;1070;-62